sensor_id;sensor_type;location;lat;lon;timestamp;P1;durP1;ratioP1;P2;durP2;ratioP2
45392;SDS011;31129;44.810;10.334;2023-09-19T00:00:21;20.75;;;5.55;;
45392;SDS011;31129;44.810;10.334;2023-09-19T00:02:56;13.65;;;5.57;;
45392;SDS011;31129;44.810;10.334;2023-09-19T00:05:22;21.92;;;6.15;;
45392;SDS011;31129;44.810;10.334;2023-09-19T00:07:52;29.05;;;5.78;;
45392;SDS011;31129;44.810;10.334;2023-09-19T00:10:26;18.20;;;5.97;;
45392;SDS011;31129;44.810;10.334;2023-09-19T00:12:55;21.17;;;5.07;;
45392;SDS011;31129;44.810;10.334;2023-09-19T00:15:22;19.08;;;5.40;;
45392;SDS011;31129;44.810;10.334;2023-09-19T00:17:48;16.08;;;5.93;;
45392;SDS011;31129;44.810;10.334;2023-09-19T00:20:14;17.73;;;5.63;;
45392;SDS011;31129;44.810;10.334;2023-09-19T00:22:42;18.17;;;5.32;;
45392;SDS011;31129;44.810;10.334;2023-09-19T00:25:08;17.15;;;6.05;;
45392;SDS011;31129;44.810;10.334;2023-09-19T00:27:37;15.60;;;6.07;;
45392;SDS011;31129;44.810;10.334;2023-09-19T00:30:11;19.73;;;6.10;;
45392;SDS011;31129;44.810;10.334;2023-09-19T00:32:46;21.15;;;6.25;;
45392;SDS011;31129;44.810;10.334;2023-09-19T00:35:13;18.30;;;6.68;;
45392;SDS011;31129;44.810;10.334;2023-09-19T00:37:40;18.98;;;5.85;;
45392;SDS011;31129;44.810;10.334;2023-09-19T00:40:07;17.42;;;5.88;;
45392;SDS011;31129;44.810;10.334;2023-09-19T00:42:40;18.40;;;6.00;;
45392;SDS011;31129;44.810;10.334;2023-09-19T00:45:10;16.98;;;6.80;;
45392;SDS011;31129;44.810;10.334;2023-09-19T00:47:38;16.52;;;5.97;;
45392;SDS011;31129;44.810;10.334;2023-09-19T00:50:05;22.15;;;5.43;;
45392;SDS011;31129;44.810;10.334;2023-09-19T00:52:34;18.58;;;6.43;;
45392;SDS011;31129;44.810;10.334;2023-09-19T00:55:02;17.85;;;6.53;;
45392;SDS011;31129;44.810;10.334;2023-09-19T00:57:28;23.35;;;6.78;;
45392;SDS011;31129;44.810;10.334;2023-09-19T00:59:54;21.35;;;6.82;;
45392;SDS011;31129;44.810;10.334;2023-09-19T01:02:21;19.98;;;6.30;;
45392;SDS011;31129;44.810;10.334;2023-09-19T01:04:47;17.27;;;6.72;;
45392;SDS011;31129;44.810;10.334;2023-09-19T01:07:13;22.50;;;6.57;;
45392;SDS011;31129;44.810;10.334;2023-09-19T01:09:40;19.10;;;6.18;;
45392;SDS011;31129;44.810;10.334;2023-09-19T01:12:07;19.30;;;6.85;;
45392;SDS011;31129;44.810;10.334;2023-09-19T01:17:30;15.90;;;5.72;;
45392;SDS011;31129;44.810;10.334;2023-09-19T01:20:21;18.45;;;5.82;;
45392;SDS011;31129;44.810;10.334;2023-09-19T01:22:56;23.90;;;5.90;;
45392;SDS011;31129;44.810;10.334;2023-09-19T01:28:20;21.10;;;5.30;;
45392;SDS011;31129;44.810;10.334;2023-09-19T01:30:51;21.65;;;6.78;;
45392;SDS011;31129;44.810;10.334;2023-09-19T01:33:23;20.95;;;5.93;;
45392;SDS011;31129;44.810;10.334;2023-09-19T01:35:48;16.40;;;6.45;;
45392;SDS011;31129;44.810;10.334;2023-09-19T01:38:15;23.38;;;6.35;;
45392;SDS011;31129;44.810;10.334;2023-09-19T01:40:46;15.82;;;5.80;;
45392;SDS011;31129;44.810;10.334;2023-09-19T01:48:58;16.90;;;6.82;;
45392;SDS011;31129;44.810;10.334;2023-09-19T01:54:36;16.75;;;6.38;;
45392;SDS011;31129;44.810;10.334;2023-09-19T01:57:16;22.88;;;7.07;;
45392;SDS011;31129;44.810;10.334;2023-09-19T01:59:51;17.98;;;7.22;;
45392;SDS011;31129;44.810;10.334;2023-09-19T02:02:21;25.38;;;6.60;;
45392;SDS011;31129;44.810;10.334;2023-09-19T02:04:48;22.98;;;6.65;;
45392;SDS011;31129;44.810;10.334;2023-09-19T02:07:17;21.17;;;7.32;;
45392;SDS011;31129;44.810;10.334;2023-09-19T02:09:43;20.55;;;6.75;;
45392;SDS011;31129;44.810;10.334;2023-09-19T02:12:09;26.25;;;6.45;;
45392;SDS011;31129;44.810;10.334;2023-09-19T02:14:35;18.98;;;5.78;;
45392;SDS011;31129;44.810;10.334;2023-09-19T02:17:02;26.17;;;6.57;;
45392;SDS011;31129;44.810;10.334;2023-09-19T02:19:32;26.85;;;6.35;;
45392;SDS011;31129;44.810;10.334;2023-09-19T02:21:59;19.55;;;5.97;;
45392;SDS011;31129;44.810;10.334;2023-09-19T02:24:28;24.98;;;6.35;;
45392;SDS011;31129;44.810;10.334;2023-09-19T02:26:54;25.35;;;6.28;;
45392;SDS011;31129;44.810;10.334;2023-09-19T02:29:20;30.02;;;6.70;;
45392;SDS011;31129;44.810;10.334;2023-09-19T02:31:47;23.13;;;5.90;;
45392;SDS011;31129;44.810;10.334;2023-09-19T02:34:14;28.55;;;6.03;;
45392;SDS011;31129;44.810;10.334;2023-09-19T02:36:42;24.13;;;6.15;;
45392;SDS011;31129;44.810;10.334;2023-09-19T02:39:09;29.73;;;6.80;;
45392;SDS011;31129;44.810;10.334;2023-09-19T02:41:36;15.60;;;5.53;;
45392;SDS011;31129;44.810;10.334;2023-09-19T02:44:02;20.50;;;6.30;;
45392;SDS011;31129;44.810;10.334;2023-09-19T02:46:28;27.40;;;6.68;;
45392;SDS011;31129;44.810;10.334;2023-09-19T02:48:54;25.67;;;6.80;;
45392;SDS011;31129;44.810;10.334;2023-09-19T02:51:20;33.22;;;6.13;;
45392;SDS011;31129;44.810;10.334;2023-09-19T02:53:45;23.33;;;6.55;;
45392;SDS011;31129;44.810;10.334;2023-09-19T02:56:12;19.20;;;6.40;;
45392;SDS011;31129;44.810;10.334;2023-09-19T02:58:44;24.55;;;6.45;;
45392;SDS011;31129;44.810;10.334;2023-09-19T03:01:09;21.50;;;6.38;;
45392;SDS011;31129;44.810;10.334;2023-09-19T03:03:37;26.35;;;6.45;;
45392;SDS011;31129;44.810;10.334;2023-09-19T03:06:05;31.98;;;7.30;;
45392;SDS011;31129;44.810;10.334;2023-09-19T03:08:31;25.17;;;6.47;;
45392;SDS011;31129;44.810;10.334;2023-09-19T03:11:04;33.25;;;6.97;;
45392;SDS011;31129;44.810;10.334;2023-09-19T03:13:31;24.27;;;6.47;;
45392;SDS011;31129;44.810;10.334;2023-09-19T03:15:58;29.55;;;6.93;;
45392;SDS011;31129;44.810;10.334;2023-09-19T03:20:55;29.88;;;6.25;;
45392;SDS011;31129;44.810;10.334;2023-09-19T03:23:21;25.05;;;6.47;;
45392;SDS011;31129;44.810;10.334;2023-09-19T03:25:50;26.67;;;6.90;;
45392;SDS011;31129;44.810;10.334;2023-09-19T03:28:17;27.08;;;7.05;;
45392;SDS011;31129;44.810;10.334;2023-09-19T03:30:59;21.02;;;6.40;;
45392;SDS011;31129;44.810;10.334;2023-09-19T03:33:30;25.80;;;6.65;;
45392;SDS011;31129;44.810;10.334;2023-09-19T03:36:03;17.95;;;5.70;;
45392;SDS011;31129;44.810;10.334;2023-09-19T03:38:32;19.90;;;5.93;;
45392;SDS011;31129;44.810;10.334;2023-09-19T03:41:00;21.73;;;7.18;;
45392;SDS011;31129;44.810;10.334;2023-09-19T03:43:27;23.53;;;6.67;;
45392;SDS011;31129;44.810;10.334;2023-09-19T03:45:55;24.52;;;5.82;;
45392;SDS011;31129;44.810;10.334;2023-09-19T03:48:22;26.08;;;6.75;;
45392;SDS011;31129;44.810;10.334;2023-09-19T03:50:49;19.85;;;6.97;;
45392;SDS011;31129;44.810;10.334;2023-09-19T03:53:16;19.15;;;5.47;;
45392;SDS011;31129;44.810;10.334;2023-09-19T03:55:45;20.05;;;6.75;;
45392;SDS011;31129;44.810;10.334;2023-09-19T03:58:11;25.95;;;6.43;;
45392;SDS011;31129;44.810;10.334;2023-09-19T04:00:38;22.85;;;6.22;;
45392;SDS011;31129;44.810;10.334;2023-09-19T04:03:03;19.95;;;5.82;;
45392;SDS011;31129;44.810;10.334;2023-09-19T04:05:31;26.52;;;6.57;;
45392;SDS011;31129;44.810;10.334;2023-09-19T04:07:59;24.75;;;6.72;;
45392;SDS011;31129;44.810;10.334;2023-09-19T04:10:25;21.70;;;6.15;;
45392;SDS011;31129;44.810;10.334;2023-09-19T04:12:54;19.05;;;5.97;;
45392;SDS011;31129;44.810;10.334;2023-09-19T04:15:21;24.25;;;6.88;;
45392;SDS011;31129;44.810;10.334;2023-09-19T04:17:51;24.65;;;8.55;;
45392;SDS011;31129;44.810;10.334;2023-09-19T04:20:18;25.95;;;7.97;;
45392;SDS011;31129;44.810;10.334;2023-09-19T04:22:50;23.42;;;8.75;;
45392;SDS011;31129;44.810;10.334;2023-09-19T04:25:16;28.25;;;9.32;;
45392;SDS011;31129;44.810;10.334;2023-09-19T04:27:43;31.60;;;10.00;;
45392;SDS011;31129;44.810;10.334;2023-09-19T04:30:09;26.27;;;9.63;;
45392;SDS011;31129;44.810;10.334;2023-09-19T04:32:35;33.42;;;10.65;;
45392;SDS011;31129;44.810;10.334;2023-09-19T04:35:01;26.65;;;10.30;;
45392;SDS011;31129;44.810;10.334;2023-09-19T04:37:31;30.67;;;12.73;;
45392;SDS011;31129;44.810;10.334;2023-09-19T04:39:56;28.27;;;12.93;;
45392;SDS011;31129;44.810;10.334;2023-09-19T04:42:22;30.42;;;12.95;;
45392;SDS011;31129;44.810;10.334;2023-09-19T04:44:50;29.90;;;13.20;;
45392;SDS011;31129;44.810;10.334;2023-09-19T04:49:44;23.83;;;13.18;;
45392;SDS011;31129;44.810;10.334;2023-09-19T04:52:09;40.45;;;14.60;;
45392;SDS011;31129;44.810;10.334;2023-09-19T04:54:35;30.35;;;14.40;;
45392;SDS011;31129;44.810;10.334;2023-09-19T04:57:00;32.40;;;15.07;;
45392;SDS011;31129;44.810;10.334;2023-09-19T04:59:26;40.75;;;18.23;;
45392;SDS011;31129;44.810;10.334;2023-09-19T05:01:53;36.78;;;19.15;;
45392;SDS011;31129;44.810;10.334;2023-09-19T05:04:18;43.20;;;18.88;;
45392;SDS011;31129;44.810;10.334;2023-09-19T05:06:44;46.35;;;21.33;;
45392;SDS011;31129;44.810;10.334;2023-09-19T05:09:10;54.03;;;21.02;;
45392;SDS011;31129;44.810;10.334;2023-09-19T05:11:35;43.03;;;22.02;;
45392;SDS011;31129;44.810;10.334;2023-09-19T05:14:03;41.03;;;21.45;;
45392;SDS011;31129;44.810;10.334;2023-09-19T05:16:29;35.53;;;19.92;;
45392;SDS011;31129;44.810;10.334;2023-09-19T05:18:58;45.13;;;21.40;;
45392;SDS011;31129;44.810;10.334;2023-09-19T05:21:25;38.92;;;21.23;;
45392;SDS011;31129;44.810;10.334;2023-09-19T05:23:54;42.47;;;23.30;;
45392;SDS011;31129;44.810;10.334;2023-09-19T05:26:20;46.35;;;22.83;;
45392;SDS011;31129;44.810;10.334;2023-09-19T05:28:46;45.15;;;22.75;;
45392;SDS011;31129;44.810;10.334;2023-09-19T05:31:13;44.30;;;22.33;;
45392;SDS011;31129;44.810;10.334;2023-09-19T05:33:40;42.23;;;23.70;;
45392;SDS011;31129;44.810;10.334;2023-09-19T05:36:05;38.28;;;22.70;;
45392;SDS011;31129;44.810;10.334;2023-09-19T05:38:31;40.05;;;22.10;;
45392;SDS011;31129;44.810;10.334;2023-09-19T05:40:57;42.92;;;24.25;;
45392;SDS011;31129;44.810;10.334;2023-09-19T05:43:23;47.20;;;25.13;;
45392;SDS011;31129;44.810;10.334;2023-09-19T05:45:49;45.05;;;22.95;;
45392;SDS011;31129;44.810;10.334;2023-09-19T05:48:17;46.58;;;23.70;;
45392;SDS011;31129;44.810;10.334;2023-09-19T05:50:42;49.90;;;26.60;;
45392;SDS011;31129;44.810;10.334;2023-09-19T05:53:08;47.05;;;24.05;;
45392;SDS011;31129;44.810;10.334;2023-09-19T05:55:37;45.38;;;22.45;;
45392;SDS011;31129;44.810;10.334;2023-09-19T05:58:02;48.25;;;27.02;;
45392;SDS011;31129;44.810;10.334;2023-09-19T06:00:28;39.20;;;24.27;;
45392;SDS011;31129;44.810;10.334;2023-09-19T06:05:24;49.70;;;25.75;;
45392;SDS011;31129;44.810;10.334;2023-09-19T06:07:52;53.17;;;28.40;;
45392;SDS011;31129;44.810;10.334;2023-09-19T06:10:18;54.13;;;28.42;;
45392;SDS011;31129;44.810;10.334;2023-09-19T06:15:14;50.55;;;29.58;;
45392;SDS011;31129;44.810;10.334;2023-09-19T06:17:50;53.70;;;30.00;;
45392;SDS011;31129;44.810;10.334;2023-09-19T06:20:20;52.58;;;30.02;;
45392;SDS011;31129;44.810;10.334;2023-09-19T06:22:50;49.25;;;28.83;;
45392;SDS011;31129;44.810;10.334;2023-09-19T06:25:16;51.83;;;30.30;;
45392;SDS011;31129;44.810;10.334;2023-09-19T06:27:45;54.47;;;28.70;;
45392;SDS011;31129;44.810;10.334;2023-09-19T06:30:14;57.00;;;30.80;;
45392;SDS011;31129;44.810;10.334;2023-09-19T06:32:41;65.00;;;32.65;;
45392;SDS011;31129;44.810;10.334;2023-09-19T06:35:10;55.88;;;31.40;;
45392;SDS011;31129;44.810;10.334;2023-09-19T06:37:36;56.38;;;32.05;;
45392;SDS011;31129;44.810;10.334;2023-09-19T06:40:06;61.67;;;32.15;;
45392;SDS011;31129;44.810;10.334;2023-09-19T06:42:42;55.80;;;32.17;;
45392;SDS011;31129;44.810;10.334;2023-09-19T06:45:12;62.33;;;32.78;;
45392;SDS011;31129;44.810;10.334;2023-09-19T06:47:47;61.03;;;34.88;;
45392;SDS011;31129;44.810;10.334;2023-09-19T06:50:20;63.67;;;33.78;;
45392;SDS011;31129;44.810;10.334;2023-09-19T06:52:50;62.38;;;35.45;;
45392;SDS011;31129;44.810;10.334;2023-09-19T06:55:17;62.95;;;36.15;;
45392;SDS011;31129;44.810;10.334;2023-09-19T06:57:45;59.15;;;33.42;;
45392;SDS011;31129;44.810;10.334;2023-09-19T07:00:11;55.13;;;32.42;;
45392;SDS011;31129;44.810;10.334;2023-09-19T07:03:02;60.55;;;35.40;;
45392;SDS011;31129;44.810;10.334;2023-09-19T07:05:34;44.53;;;26.27;;
45392;SDS011;31129;44.810;10.334;2023-09-19T07:08:04;56.33;;;32.92;;
45392;SDS011;31129;44.810;10.334;2023-09-19T07:10:31;51.15;;;33.08;;
45392;SDS011;31129;44.810;10.334;2023-09-19T07:13:05;55.92;;;33.53;;
45392;SDS011;31129;44.810;10.334;2023-09-19T07:15:36;59.03;;;35.42;;
45392;SDS011;31129;44.810;10.334;2023-09-19T07:18:11;54.95;;;31.95;;
45392;SDS011;31129;44.810;10.334;2023-09-19T07:20:40;53.75;;;32.00;;
45392;SDS011;31129;44.810;10.334;2023-09-19T07:23:11;49.60;;;31.42;;
45392;SDS011;31129;44.810;10.334;2023-09-19T07:25:40;50.40;;;30.30;;
45392;SDS011;31129;44.810;10.334;2023-09-19T07:28:06;56.97;;;31.77;;
45392;SDS011;31129;44.810;10.334;2023-09-19T07:30:31;51.38;;;30.35;;
45392;SDS011;31129;44.810;10.334;2023-09-19T07:32:57;51.88;;;28.50;;
45392;SDS011;31129;44.810;10.334;2023-09-19T07:35:22;46.17;;;28.58;;
45392;SDS011;31129;44.810;10.334;2023-09-19T07:37:48;46.28;;;27.92;;
45392;SDS011;31129;44.810;10.334;2023-09-19T07:40:18;49.30;;;28.52;;
45392;SDS011;31129;44.810;10.334;2023-09-19T07:42:45;46.45;;;28.27;;
45392;SDS011;31129;44.810;10.334;2023-09-19T07:45:12;52.45;;;28.45;;
45392;SDS011;31129;44.810;10.334;2023-09-19T07:47:45;49.63;;;29.45;;
45392;SDS011;31129;44.810;10.334;2023-09-19T07:50:12;57.60;;;28.30;;
45392;SDS011;31129;44.810;10.334;2023-09-19T07:52:38;50.42;;;27.63;;
45392;SDS011;31129;44.810;10.334;2023-09-19T07:55:08;50.83;;;28.02;;
45392;SDS011;31129;44.810;10.334;2023-09-19T07:57:41;42.45;;;23.25;;
45392;SDS011;31129;44.810;10.334;2023-09-19T08:00:07;47.60;;;23.13;;
45392;SDS011;31129;44.810;10.334;2023-09-19T08:02:41;35.80;;;21.08;;
45392;SDS011;31129;44.810;10.334;2023-09-19T08:05:07;41.33;;;21.85;;
45392;SDS011;31129;44.810;10.334;2023-09-19T08:07:37;42.33;;;21.30;;
45392;SDS011;31129;44.810;10.334;2023-09-19T08:10:04;30.67;;;20.25;;
45392;SDS011;31129;44.810;10.334;2023-09-19T08:12:33;41.70;;;22.42;;
45392;SDS011;31129;44.810;10.334;2023-09-19T08:15:01;43.20;;;22.38;;
45392;SDS011;31129;44.810;10.334;2023-09-19T08:17:34;41.58;;;24.88;;
45392;SDS011;31129;44.810;10.334;2023-09-19T08:20:00;39.20;;;25.40;;
45392;SDS011;31129;44.810;10.334;2023-09-19T08:22:26;36.63;;;21.52;;
45392;SDS011;31129;44.810;10.334;2023-09-19T08:24:52;43.45;;;24.23;;
45392;SDS011;31129;44.810;10.334;2023-09-19T08:27:18;46.17;;;25.38;;
45392;SDS011;31129;44.810;10.334;2023-09-19T08:29:44;41.97;;;23.77;;
45392;SDS011;31129;44.810;10.334;2023-09-19T08:32:11;33.45;;;21.67;;
45392;SDS011;31129;44.810;10.334;2023-09-19T08:34:37;36.45;;;22.13;;
45392;SDS011;31129;44.810;10.334;2023-09-19T08:37:03;35.03;;;20.70;;
45392;SDS011;31129;44.810;10.334;2023-09-19T08:39:29;38.13;;;20.55;;
45392;SDS011;31129;44.810;10.334;2023-09-19T08:41:59;43.03;;;21.10;;
45392;SDS011;31129;44.810;10.334;2023-09-19T08:44:25;37.15;;;21.38;;
45392;SDS011;31129;44.810;10.334;2023-09-19T08:47:00;33.28;;;19.70;;
45392;SDS011;31129;44.810;10.334;2023-09-19T08:49:37;35.95;;;19.30;;
45392;SDS011;31129;44.810;10.334;2023-09-19T08:52:31;36.42;;;21.90;;
45392;SDS011;31129;44.810;10.334;2023-09-19T08:55:05;35.97;;;20.13;;
45392;SDS011;31129;44.810;10.334;2023-09-19T08:57:35;28.95;;;21.58;;
45392;SDS011;31129;44.810;10.334;2023-09-19T09:00:04;46.53;;;21.88;;
45392;SDS011;31129;44.810;10.334;2023-09-19T09:02:36;34.55;;;20.45;;
45392;SDS011;31129;44.810;10.334;2023-09-19T09:05:06;47.85;;;21.55;;
45392;SDS011;31129;44.810;10.334;2023-09-19T09:07:39;37.95;;;20.38;;
45392;SDS011;31129;44.810;10.334;2023-09-19T09:10:05;39.33;;;20.02;;
45392;SDS011;31129;44.810;10.334;2023-09-19T09:12:34;38.88;;;21.83;;
45392;SDS011;31129;44.810;10.334;2023-09-19T09:15:01;38.95;;;22.00;;
45392;SDS011;31129;44.810;10.334;2023-09-19T09:17:28;40.88;;;25.92;;
45392;SDS011;31129;44.810;10.334;2023-09-19T09:19:55;43.63;;;24.98;;
45392;SDS011;31129;44.810;10.334;2023-09-19T09:22:21;43.72;;;23.40;;
45392;SDS011;31129;44.810;10.334;2023-09-19T09:24:53;42.50;;;25.50;;
45392;SDS011;31129;44.810;10.334;2023-09-19T09:27:20;50.05;;;25.60;;
45392;SDS011;31129;44.810;10.334;2023-09-19T09:29:46;44.95;;;25.45;;
45392;SDS011;31129;44.810;10.334;2023-09-19T09:32:25;49.13;;;24.52;;
45392;SDS011;31129;44.810;10.334;2023-09-19T09:34:54;47.25;;;28.17;;
45392;SDS011;31129;44.810;10.334;2023-09-19T09:37:22;51.25;;;27.40;;
45392;SDS011;31129;44.810;10.334;2023-09-19T09:42:44;45.35;;;23.95;;
45392;SDS011;31129;44.810;10.334;2023-09-19T09:45:23;38.53;;;20.85;;
45392;SDS011;31129;44.810;10.334;2023-09-19T09:47:58;40.78;;;24.20;;
45392;SDS011;31129;44.810;10.334;2023-09-19T09:53:29;50.90;;;25.60;;
45392;SDS011;31129;44.810;10.334;2023-09-19T09:56:09;44.08;;;26.20;;
45392;SDS011;31129;44.810;10.334;2023-09-19T09:58:37;45.03;;;24.00;;
45392;SDS011;31129;44.810;10.334;2023-09-19T10:01:20;36.20;;;21.15;;
45392;SDS011;31129;44.810;10.334;2023-09-19T10:03:51;40.33;;;21.48;;
45392;SDS011;31129;44.810;10.334;2023-09-19T10:06:23;39.40;;;20.85;;
45392;SDS011;31129;44.810;10.334;2023-09-19T10:08:58;40.72;;;23.20;;
45392;SDS011;31129;44.810;10.334;2023-09-19T10:11:38;40.58;;;22.27;;
45392;SDS011;31129;44.810;10.334;2023-09-19T10:14:08;37.72;;;22.35;;
45392;SDS011;31129;44.810;10.334;2023-09-19T10:16:38;37.45;;;21.65;;
45392;SDS011;31129;44.810;10.334;2023-09-19T10:19:07;47.33;;;25.83;;
45392;SDS011;31129;44.810;10.334;2023-09-19T10:21:34;43.30;;;23.48;;
45392;SDS011;31129;44.810;10.334;2023-09-19T10:24:01;37.42;;;22.08;;
45392;SDS011;31129;44.810;10.334;2023-09-19T10:26:34;45.28;;;25.17;;
45392;SDS011;31129;44.810;10.334;2023-09-19T10:29:01;38.70;;;20.65;;
45392;SDS011;31129;44.810;10.334;2023-09-19T10:31:32;38.45;;;23.80;;
45392;SDS011;31129;44.810;10.334;2023-09-19T10:34:02;40.20;;;21.55;;
45392;SDS011;31129;44.810;10.334;2023-09-19T10:36:31;42.88;;;20.90;;
45392;SDS011;31129;44.810;10.334;2023-09-19T10:39:00;34.30;;;19.67;;
45392;SDS011;31129;44.810;10.334;2023-09-19T10:41:30;36.95;;;20.52;;
45392;SDS011;31129;44.810;10.334;2023-09-19T10:44:00;31.80;;;18.05;;
45392;SDS011;31129;44.810;10.334;2023-09-19T10:46:31;31.48;;;17.55;;
45392;SDS011;31129;44.810;10.334;2023-09-19T10:49:00;36.72;;;20.42;;
45392;SDS011;31129;44.810;10.334;2023-09-19T10:51:29;30.73;;;18.30;;
45392;SDS011;31129;44.810;10.334;2023-09-19T10:54:06;31.65;;;19.60;;
45392;SDS011;31129;44.810;10.334;2023-09-19T10:56:38;35.72;;;16.95;;
45392;SDS011;31129;44.810;10.334;2023-09-19T10:59:10;36.40;;;17.90;;
45392;SDS011;31129;44.810;10.334;2023-09-19T11:01:51;32.63;;;16.60;;
45392;SDS011;31129;44.810;10.334;2023-09-19T11:04:34;29.00;;;15.57;;
45392;SDS011;31129;44.810;10.334;2023-09-19T11:07:10;30.00;;;16.23;;
45392;SDS011;31129;44.810;10.334;2023-09-19T11:09:44;31.08;;;14.52;;
45392;SDS011;31129;44.810;10.334;2023-09-19T11:12:36;32.03;;;16.63;;
45392;SDS011;31129;44.810;10.334;2023-09-19T11:15:06;38.00;;;16.95;;
45392;SDS011;31129;44.810;10.334;2023-09-19T11:17:40;32.70;;;14.95;;
45392;SDS011;31129;44.810;10.334;2023-09-19T11:30:31;28.52;;;14.88;;
45392;SDS011;31129;44.810;10.334;2023-09-19T11:36:11;28.05;;;15.02;;
45392;SDS011;31129;44.810;10.334;2023-09-19T11:39:01;31.58;;;15.68;;
45392;SDS011;31129;44.810;10.334;2023-09-19T11:41:36;26.70;;;14.43;;
45392;SDS011;31129;44.810;10.334;2023-09-19T11:46:30;33.40;;;15.75;;
45392;SDS011;31129;44.810;10.334;2023-09-19T11:49:04;26.25;;;13.65;;
45392;SDS011;31129;44.810;10.334;2023-09-19T11:51:54;25.48;;;13.45;;
45392;SDS011;31129;44.810;10.334;2023-09-19T11:54:20;30.17;;;14.35;;
45392;SDS011;31129;44.810;10.334;2023-09-19T11:56:52;29.00;;;14.57;;
45392;SDS011;31129;44.810;10.334;2023-09-19T11:59:21;25.30;;;12.45;;
45392;SDS011;31129;44.810;10.334;2023-09-19T12:01:54;26.83;;;12.98;;
45392;SDS011;31129;44.810;10.334;2023-09-19T12:07:12;37.53;;;12.38;;
45392;SDS011;31129;44.810;10.334;2023-09-19T12:09:42;25.70;;;12.00;;
45392;SDS011;31129;44.810;10.334;2023-09-19T12:12:24;30.42;;;13.48;;
45392;SDS011;31129;44.810;10.334;2023-09-19T12:14:54;27.48;;;15.45;;
45392;SDS011;31129;44.810;10.334;2023-09-19T12:17:22;37.55;;;15.88;;
45392;SDS011;31129;44.810;10.334;2023-09-19T12:19:49;27.58;;;14.55;;
45392;SDS011;31129;44.810;10.334;2023-09-19T12:22:17;24.83;;;13.07;;
45392;SDS011;31129;44.810;10.334;2023-09-19T12:27:10;29.88;;;12.93;;
45392;SDS011;31129;44.810;10.334;2023-09-19T12:29:49;29.90;;;13.40;;
45392;SDS011;31129;44.810;10.334;2023-09-19T12:32:15;22.00;;;11.95;;
45392;SDS011;31129;44.810;10.334;2023-09-19T12:34:52;26.77;;;12.93;;
45392;SDS011;31129;44.810;10.334;2023-09-19T12:37:19;26.55;;;12.85;;
45392;SDS011;31129;44.810;10.334;2023-09-19T12:39:51;28.95;;;12.38;;
45392;SDS011;31129;44.810;10.334;2023-09-19T12:42:24;26.90;;;13.75;;
45392;SDS011;31129;44.810;10.334;2023-09-19T12:44:54;28.80;;;13.02;;
45392;SDS011;31129;44.810;10.334;2023-09-19T12:52:45;29.02;;;13.43;;
45392;SDS011;31129;44.810;10.334;2023-09-19T12:55:25;35.53;;;14.07;;
45392;SDS011;31129;44.810;10.334;2023-09-19T12:58:11;35.43;;;12.33;;
45392;SDS011;31129;44.810;10.334;2023-09-19T13:00:39;31.05;;;11.60;;
45392;SDS011;31129;44.810;10.334;2023-09-19T13:03:10;26.50;;;10.15;;
45392;SDS011;31129;44.810;10.334;2023-09-19T13:05:52;20.17;;;10.55;;
45392;SDS011;31129;44.810;10.334;2023-09-19T13:11:06;25.30;;;13.07;;
45392;SDS011;31129;44.810;10.334;2023-09-19T13:13:44;32.15;;;13.30;;
45392;SDS011;31129;44.810;10.334;2023-09-19T13:16:13;28.52;;;11.48;;
45392;SDS011;31129;44.810;10.334;2023-09-19T13:21:34;26.23;;;12.13;;
45392;SDS011;31129;44.810;10.334;2023-09-19T13:26:53;25.92;;;11.00;;
45392;SDS011;31129;44.810;10.334;2023-09-19T13:29:21;21.77;;;9.75;;
45392;SDS011;31129;44.810;10.334;2023-09-19T13:31:48;22.63;;;10.20;;
45392;SDS011;31129;44.810;10.334;2023-09-19T13:34:16;25.35;;;11.02;;
45392;SDS011;31129;44.810;10.334;2023-09-19T13:36:42;23.83;;;10.57;;
45392;SDS011;31129;44.810;10.334;2023-09-19T13:39:09;18.23;;;8.98;;
45392;SDS011;31129;44.810;10.334;2023-09-19T13:41:35;22.75;;;9.65;;
45392;SDS011;31129;44.810;10.334;2023-09-19T13:44:02;24.25;;;9.80;;
45392;SDS011;31129;44.810;10.334;2023-09-19T13:46:28;24.35;;;9.88;;
45392;SDS011;31129;44.810;10.334;2023-09-19T13:48:56;28.17;;;10.63;;
45392;SDS011;31129;44.810;10.334;2023-09-19T13:51:28;21.35;;;9.18;;
45392;SDS011;31129;44.810;10.334;2023-09-19T13:53:55;25.25;;;9.70;;
45392;SDS011;31129;44.810;10.334;2023-09-19T13:56:20;27.55;;;10.07;;
45392;SDS011;31129;44.810;10.334;2023-09-19T13:58:49;21.90;;;10.18;;
45392;SDS011;31129;44.810;10.334;2023-09-19T14:01:15;20.42;;;9.27;;
45392;SDS011;31129;44.810;10.334;2023-09-19T14:03:41;21.10;;;9.10;;
45392;SDS011;31129;44.810;10.334;2023-09-19T14:06:11;21.38;;;9.30;;
45392;SDS011;31129;44.810;10.334;2023-09-19T14:08:37;18.77;;;10.45;;
45392;SDS011;31129;44.810;10.334;2023-09-19T14:11:09;21.52;;;10.70;;
45392;SDS011;31129;44.810;10.334;2023-09-19T14:13:35;24.60;;;10.73;;
45392;SDS011;31129;44.810;10.334;2023-09-19T14:16:04;22.58;;;8.73;;
45392;SDS011;31129;44.810;10.334;2023-09-19T14:18:31;21.88;;;9.02;;
45392;SDS011;31129;44.810;10.334;2023-09-19T14:21:03;29.05;;;10.55;;
45392;SDS011;31129;44.810;10.334;2023-09-19T14:23:39;23.75;;;8.77;;
45392;SDS011;31129;44.810;10.334;2023-09-19T14:28:34;19.58;;;9.07;;
45392;SDS011;31129;44.810;10.334;2023-09-19T14:31:06;24.95;;;9.75;;
45392;SDS011;31129;44.810;10.334;2023-09-19T14:33:33;23.15;;;9.05;;
45392;SDS011;31129;44.810;10.334;2023-09-19T14:36:00;21.65;;;9.45;;
45392;SDS011;31129;44.810;10.334;2023-09-19T14:38:28;18.80;;;9.02;;
45392;SDS011;31129;44.810;10.334;2023-09-19T14:41:03;20.38;;;8.65;;
45392;SDS011;31129;44.810;10.334;2023-09-19T14:43:34;22.05;;;8.50;;
45392;SDS011;31129;44.810;10.334;2023-09-19T14:46:05;22.23;;;9.02;;
45392;SDS011;31129;44.810;10.334;2023-09-19T14:48:35;19.80;;;7.75;;
45392;SDS011;31129;44.810;10.334;2023-09-19T14:51:04;21.67;;;8.35;;
45392;SDS011;31129;44.810;10.334;2023-09-19T14:53:31;19.95;;;8.60;;
45392;SDS011;31129;44.810;10.334;2023-09-19T14:55:59;21.90;;;8.75;;
45392;SDS011;31129;44.810;10.334;2023-09-19T14:58:43;23.70;;;9.73;;
45392;SDS011;31129;44.810;10.334;2023-09-19T15:01:09;27.05;;;9.05;;
45392;SDS011;31129;44.810;10.334;2023-09-19T15:03:37;24.23;;;8.70;;
45392;SDS011;31129;44.810;10.334;2023-09-19T15:06:07;17.15;;;7.65;;
45392;SDS011;31129;44.810;10.334;2023-09-19T15:08:37;22.38;;;9.43;;
45392;SDS011;31129;44.810;10.334;2023-09-19T15:11:08;22.83;;;8.15;;
45392;SDS011;31129;44.810;10.334;2023-09-19T15:13:35;18.98;;;7.55;;
45392;SDS011;31129;44.810;10.334;2023-09-19T15:16:02;18.17;;;7.97;;
45392;SDS011;31129;44.810;10.334;2023-09-19T15:18:29;26.63;;;9.13;;
45392;SDS011;31129;44.810;10.334;2023-09-19T15:21:02;20.30;;;7.78;;
45392;SDS011;31129;44.810;10.334;2023-09-19T15:23:30;20.27;;;7.65;;
45392;SDS011;31129;44.810;10.334;2023-09-19T15:25:59;18.52;;;7.10;;
45392;SDS011;31129;44.810;10.334;2023-09-19T15:28:26;20.85;;;7.43;;
45392;SDS011;31129;44.810;10.334;2023-09-19T15:31:12;18.00;;;7.20;;
45392;SDS011;31129;44.810;10.334;2023-09-19T15:33:38;14.10;;;7.40;;